createdAt,value
2017-11-09T00:02:17.193Z,3.40
2017-11-09T00:04:50.527Z,3.30
2017-11-09T00:07:18.047Z,3.30
2017-11-09T00:09:45.552Z,3.30
2017-11-09T00:12:13.840Z,3.20
2017-11-09T00:14:42.111Z,3.20
2017-11-09T00:17:10.397Z,3.20
2017-11-09T00:19:38.668Z,3.20
2017-11-09T00:22:06.989Z,3.30
2017-11-09T00:24:34.494Z,3.30
2017-11-09T00:27:02.021Z,3.30
2017-11-09T00:29:29.541Z,3.30
2017-11-09T00:31:57.066Z,3.30
2017-11-09T00:34:25.356Z,3.50
2017-11-09T00:36:53.629Z,3.60
2017-11-09T00:39:21.913Z,3.60
2017-11-09T00:41:50.185Z,3.70
2017-11-09T00:44:18.488Z,3.60
2017-11-09T00:46:46.001Z,3.60
2017-11-09T00:49:13.509Z,3.50
2017-11-09T00:51:41.029Z,3.50
2017-11-09T00:54:09.300Z,3.60
2017-11-09T00:56:37.583Z,3.60
2017-11-09T00:59:05.852Z,3.70
2017-11-09T01:01:34.140Z,3.70
2017-11-09T01:04:02.409Z,3.80
2017-11-09T01:06:30.700Z,3.80
2017-11-09T01:08:58.204Z,3.80
2017-11-09T01:11:25.707Z,3.80
2017-11-09T01:13:53.988Z,3.80
2017-11-09T01:16:21.496Z,3.80
2017-11-09T01:18:49.015Z,3.80
2017-11-09T01:21:16.521Z,3.90
2017-11-09T01:23:44.037Z,3.90
2017-11-09T01:26:11.539Z,3.90
2017-11-09T01:28:39.068Z,3.90
2017-11-09T01:31:06.572Z,3.90
2017-11-09T01:33:34.848Z,3.90
2017-11-09T01:36:02.376Z,3.90
2017-11-09T01:38:29.881Z,3.90
2017-11-09T01:40:58.169Z,3.90
2017-11-09T01:43:25.670Z,3.90
2017-11-09T01:45:53.187Z,3.90
2017-11-09T01:48:20.699Z,3.90
2017-11-09T01:50:48.251Z,3.90
2017-11-09T01:53:15.773Z,3.90
2017-11-09T01:55:43.276Z,3.90
2017-11-09T01:58:10.806Z,3.90
2017-11-09T02:00:38.303Z,3.90
2017-11-09T02:03:05.828Z,3.90
2017-11-09T02:05:33.332Z,4.00
2017-11-09T02:08:01.621Z,4.00
2017-11-09T02:10:29.128Z,3.90
2017-11-09T02:12:56.879Z,4.00
2017-11-09T02:15:24.384Z,4.00
2017-11-09T02:17:52.656Z,4.00
2017-11-09T02:20:20.945Z,4.00
2017-11-09T02:22:49.216Z,4.00
2017-11-09T02:25:17.507Z,4.00
2017-11-09T02:27:45.012Z,4.00
2017-11-09T02:30:12.533Z,4.00
2017-11-09T02:32:40.036Z,4.00
2017-11-09T02:35:07.552Z,4.10
2017-11-09T02:37:35.057Z,4.00
2017-11-09T02:40:02.556Z,3.80
2017-11-09T02:42:30.076Z,3.80
2017-11-09T02:44:57.584Z,3.80
2017-11-09T02:47:25.107Z,3.80
2017-11-09T02:49:53.389Z,3.80
2017-11-09T02:52:21.676Z,3.90
2017-11-09T02:54:49.956Z,3.90
2017-11-09T02:57:17.504Z,3.90
2017-11-09T02:59:45.775Z,3.90
2017-11-09T03:02:14.061Z,3.90
2017-11-09T03:04:42.322Z,3.90
2017-11-09T03:07:10.586Z,3.90
2017-11-09T03:09:38.111Z,3.90
2017-11-09T03:12:05.613Z,3.90
2017-11-09T03:14:33.908Z,4.00
2017-11-09T03:17:02.177Z,4.00
2017-11-09T03:19:30.468Z,4.00
2017-11-09T03:21:57.997Z,4.00
2017-11-09T03:24:26.288Z,4.00
2017-11-09T03:26:54.560Z,4.00
2017-11-09T03:29:22.878Z,4.00
2017-11-09T03:31:50.385Z,3.90
2017-11-09T03:34:17.888Z,4.00
2017-11-09T03:36:45.403Z,4.00
2017-11-09T03:39:12.905Z,4.00
2017-11-09T03:41:40.424Z,4.00
2017-11-09T03:44:08.692Z,4.00
2017-11-09T03:46:36.217Z,4.00
2017-11-09T03:49:03.721Z,4.00
2017-11-09T03:51:32.005Z,3.90
2017-11-09T03:54:00.272Z,3.90
2017-11-09T03:56:28.588Z,4.00
2017-11-09T03:58:56.097Z,3.90
2017-11-09T04:01:24.368Z,4.00
2017-11-09T04:03:51.893Z,4.00
2017-11-09T04:06:19.395Z,4.00
2017-11-09T04:08:47.684Z,4.00
2017-11-09T04:11:15.953Z,4.00
2017-11-09T04:13:44.237Z,4.00
2017-11-09T04:16:12.504Z,3.90
2017-11-09T04:18:40.789Z,3.80
2017-11-09T04:21:08.296Z,3.90
2017-11-09T04:23:35.820Z,3.80
2017-11-09T04:26:03.330Z,3.80
2017-11-09T04:28:30.833Z,3.80
2017-11-09T04:30:58.360Z,3.80
2017-11-09T04:33:25.859Z,3.80
2017-11-09T04:35:53.376Z,3.80
2017-11-09T04:38:21.192Z,3.80
2017-11-09T04:40:48.760Z,3.80
2017-11-09T04:43:16.260Z,3.80
2017-11-09T04:45:44.549Z,3.80
2017-11-09T04:48:12.818Z,3.80
2017-11-09T04:50:41.090Z,3.80
2017-11-09T04:53:09.381Z,3.80
2017-11-09T04:55:37.652Z,3.80
2017-11-09T04:58:05.937Z,3.80
2017-11-09T05:00:33.440Z,3.80
2017-11-09T05:03:00.969Z,3.80
2017-11-09T05:05:28.474Z,3.80
2017-11-09T05:07:55.992Z,3.80
2017-11-09T05:10:23.496Z,3.80
2017-11-09T05:12:51.056Z,3.70
2017-11-09T05:15:18.566Z,3.70
2017-11-09T05:17:46.084Z,3.70
2017-11-09T05:20:14.368Z,3.60
2017-11-09T05:22:42.639Z,3.60
2017-11-09T05:25:10.931Z,3.50
2017-11-09T05:27:38.432Z,3.50
2017-11-09T05:30:05.953Z,3.40
2017-11-09T05:32:33.465Z,3.30
2017-11-09T05:35:00.988Z,3.30
2017-11-09T05:37:28.491Z,3.20
2017-11-09T05:39:56.016Z,3.20
2017-11-09T05:42:23.516Z,3.10
2017-11-09T05:44:51.788Z,3.00
2017-11-09T05:47:19.308Z,2.90
2017-11-09T05:49:46.812Z,2.90
2017-11-09T05:52:15.101Z,2.80
2017-11-09T05:54:43.373Z,2.70
2017-11-09T05:57:11.656Z,2.70
2017-11-09T05:59:39.929Z,2.70
2017-11-09T06:02:07.460Z,2.70
2017-11-09T06:04:34.973Z,2.70
2017-11-09T06:07:02.521Z,2.60
2017-11-09T06:09:30.028Z,2.50
2017-11-09T06:11:57.528Z,2.50
2017-11-09T06:14:25.050Z,2.50
2017-11-09T06:16:52.560Z,2.40
2017-11-09T06:19:20.072Z,2.40
2017-11-09T06:21:47.577Z,2.40
2017-11-09T06:24:15.096Z,2.30
2017-11-09T06:26:43.368Z,2.40
2017-11-09T06:29:11.659Z,2.40
2017-11-09T06:31:39.928Z,2.50
2017-11-09T06:34:08.245Z,2.50
2017-11-09T06:36:35.744Z,2.50
2017-11-09T06:39:03.245Z,2.60
2017-11-09T06:41:30.765Z,2.60
2017-11-09T06:43:58.273Z,2.60
2017-11-09T06:46:25.796Z,2.60
2017-11-09T06:48:54.076Z,2.70
2017-11-09T06:51:22.364Z,2.80
2017-11-09T06:53:49.872Z,2.80
2017-11-09T06:56:17.420Z,2.90
2017-11-09T06:58:44.928Z,2.90
2017-11-09T07:01:13.204Z,3.00
2017-11-09T07:03:41.493Z,3.00
2017-11-09T07:06:09.009Z,3.00
2017-11-09T07:08:36.532Z,3.00
2017-11-09T07:11:04.038Z,3.10
2017-11-09T07:13:32.341Z,3.20
2017-11-09T07:15:59.847Z,3.20
2017-11-09T07:18:27.392Z,3.30
2017-11-09T07:20:54.901Z,3.30
2017-11-09T07:23:23.172Z,3.60
2017-11-09T07:25:51.464Z,3.70
2017-11-09T07:28:18.968Z,3.70
2017-11-09T07:30:46.494Z,3.70
2017-11-09T07:33:14.004Z,3.70
2017-11-09T07:35:41.530Z,3.70
2017-11-09T07:38:09.049Z,3.80
2017-11-09T07:40:37.364Z,3.80
2017-11-09T07:43:04.868Z,3.80
2017-11-09T07:45:32.373Z,3.90
2017-11-09T07:47:59.906Z,3.90
2017-11-09T07:50:27.421Z,4.00
2017-11-09T07:52:54.945Z,4.10
2017-11-09T07:55:22.449Z,4.10
2017-11-09T07:57:49.972Z,4.10
2017-11-09T08:00:17.482Z,4.20
2017-11-09T08:02:45.800Z,4.30
2017-11-09T08:05:13.306Z,4.30
2017-11-09T08:07:41.587Z,4.30
2017-11-09T08:10:09.136Z,4.30
2017-11-09T08:12:36.644Z,4.30
2017-11-09T08:15:04.169Z,4.40
2017-11-09T08:17:32.447Z,4.60
2017-11-09T08:20:00.745Z,4.60
2017-11-09T08:22:28.257Z,4.60
2017-11-09T08:24:57.164Z,4.70
2017-11-09T08:27:26.595Z,4.80
2017-11-09T08:29:54.621Z,4.70
2017-11-09T08:32:23.616Z,4.80
2017-11-09T08:34:51.130Z,4.90
2017-11-09T08:37:19.829Z,4.90
2017-11-09T08:39:48.476Z,5.00
2017-11-09T08:42:16.769Z,5.20
2017-11-09T08:44:44.560Z,5.10
2017-11-09T09:30:53.553Z,6.80
2017-11-09T09:33:21.600Z,6.70
2017-11-09T09:35:58.768Z,6.70
2017-11-09T09:38:37.875Z,6.80
2017-11-09T09:41:05.382Z,6.70
2017-11-09T09:43:32.912Z,7.00
2017-11-09T09:46:00.418Z,7.00
2017-11-09T09:48:27.976Z,7.10
2017-11-09T09:50:55.484Z,7.20
2017-11-09T09:53:22.993Z,7.20
2017-11-09T09:55:50.517Z,7.20
2017-11-09T09:58:18.788Z,7.30
2017-11-09T10:00:47.082Z,7.50
2017-11-09T10:03:14.585Z,7.50
2017-11-09T10:05:42.124Z,7.30
2017-11-09T10:08:09.635Z,7.50
2017-11-09T10:10:37.920Z,7.10
2017-11-09T10:13:06.188Z,7.10
2017-11-09T10:15:34.502Z,7.30
2017-11-09T10:18:02.008Z,7.20
2017-11-09T10:20:29.516Z,7.40
2017-11-09T10:22:57.040Z,7.20
2017-11-09T10:25:25.317Z,7.30
2017-11-09T10:27:53.613Z,7.40
2017-11-09T10:30:21.124Z,7.40
2017-11-09T10:32:48.644Z,7.30
2017-11-09T10:35:16.150Z,7.50
2017-11-09T10:37:43.734Z,7.40
2017-11-09T10:40:12.005Z,7.50
2017-11-09T10:42:40.281Z,7.40
2017-11-09T10:45:08.584Z,7.60
2017-11-09T10:47:36.101Z,7.50
2017-11-09T10:50:03.631Z,7.60
2017-11-09T10:52:31.140Z,7.70
2017-11-09T10:54:58.669Z,7.70
2017-11-09T10:57:26.185Z,7.80
2017-11-09T10:59:53.731Z,7.60
2017-11-09T11:02:21.237Z,7.60
2017-11-09T11:04:48.750Z,7.90
2017-11-09T11:07:16.281Z,7.80
2017-11-09T11:09:44.560Z,7.80
2017-11-09T11:12:12.849Z,7.90
2017-11-09T11:14:40.373Z,7.90
2017-11-09T11:17:07.901Z,8.00
2017-11-09T11:19:35.417Z,7.90
2017-11-09T11:22:06.528Z,8.00
2017-11-09T11:24:34.044Z,8.00
2017-11-09T11:27:01.572Z,8.00
2017-11-09T11:29:29.107Z,8.00
2017-11-09T11:31:56.625Z,7.80
2017-11-09T11:34:24.149Z,8.00
2017-11-09T11:36:52.430Z,8.00
2017-11-09T11:39:19.953Z,8.00
2017-11-09T11:41:47.457Z,7.70
2017-11-09T11:44:14.981Z,7.70
2017-11-09T11:46:43.400Z,8.00
2017-11-09T11:49:10.926Z,8.00
2017-11-09T11:51:39.208Z,7.70
2017-11-09T11:54:07.521Z,7.70
2017-11-09T11:56:35.028Z,7.60
2017-11-09T11:59:02.528Z,7.70
2017-11-09T12:01:30.053Z,7.90
2017-11-09T12:03:58.324Z,8.10
2017-11-09T12:06:26.619Z,8.20
2017-11-09T12:08:54.892Z,8.00
2017-11-09T12:11:23.185Z,7.80
2017-11-09T12:13:50.699Z,7.80
2017-11-09T12:16:19.030Z,8.00
2017-11-09T12:18:46.548Z,8.00
2017-11-09T12:21:14.824Z,8.00
2017-11-09T12:23:43.117Z,7.90
2017-11-09T12:26:10.628Z,7.80
2017-11-09T12:28:38.176Z,7.80
2017-11-09T12:31:05.689Z,7.60
2017-11-09T12:33:33.982Z,7.50
2017-11-09T12:36:01.506Z,7.50
2017-11-09T12:38:29.805Z,7.50
2017-11-09T12:40:57.312Z,7.40
2017-11-09T12:43:24.845Z,7.40
2017-11-09T12:45:52.356Z,7.60
2017-11-09T12:48:20.640Z,7.50
2017-11-09T12:50:48.932Z,7.70
2017-11-09T12:53:16.436Z,7.70
2017-11-09T12:55:43.964Z,7.50
2017-11-09T12:58:11.475Z,7.20
2017-11-09T13:00:39.002Z,7.10
2017-11-09T13:03:06.508Z,7.10
2017-11-09T13:05:34.805Z,7.00
2017-11-09T13:08:02.320Z,7.00
2017-11-09T13:10:29.864Z,7.00
2017-11-09T13:12:57.368Z,7.00
2017-11-09T13:15:25.640Z,6.90
2017-11-09T13:17:53.180Z,6.90
2017-11-09T13:20:21.469Z,6.90
2017-11-09T13:22:49.756Z,6.80
2017-11-09T13:25:18.030Z,6.80
2017-11-09T13:27:46.321Z,6.90
2017-11-09T13:30:13.828Z,6.90
2017-11-09T13:32:42.128Z,6.80
2017-11-09T13:35:10.416Z,6.70
2017-11-09T13:37:38.696Z,6.70
2017-11-09T13:40:06.988Z,6.70
2017-11-09T13:42:34.496Z,6.70
2017-11-09T13:45:02.025Z,6.70
2017-11-09T13:47:29.533Z,6.60
2017-11-09T13:49:57.813Z,6.70
2017-11-09T13:52:26.105Z,6.60
2017-11-09T13:54:54.555Z,6.60
2017-11-09T13:57:22.847Z,6.60
2017-11-09T13:59:51.124Z,6.70
2017-11-09T14:02:19.421Z,6.80
2017-11-09T14:04:46.929Z,6.80
2017-11-09T14:07:14.449Z,6.80
2017-11-09T14:09:41.948Z,6.90
2017-11-09T14:12:09.475Z,6.70
2017-11-09T14:14:36.985Z,6.70
2017-11-09T14:17:05.272Z,6.70
2017-11-09T14:19:33.549Z,7.00
2017-11-09T14:22:01.837Z,6.90
2017-11-09T14:24:29.342Z,6.90
2017-11-09T14:26:56.867Z,6.90
2017-11-09T14:29:24.377Z,6.70
2017-11-09T14:31:51.932Z,6.60
2017-11-09T14:34:19.451Z,6.60
2017-11-09T14:36:47.746Z,6.70
2017-11-09T14:39:15.276Z,6.60
2017-11-09T14:41:42.788Z,6.50
2017-11-09T14:44:10.312Z,6.50
2017-11-09T14:46:37.816Z,6.40
2017-11-09T14:49:06.109Z,6.60
2017-11-09T14:51:33.619Z,6.60
2017-11-09T14:54:01.144Z,6.60
2017-11-09T14:56:28.653Z,6.60
2017-11-09T14:58:56.948Z,6.50
2017-11-09T15:01:25.225Z,6.60
2017-11-09T15:03:53.516Z,6.70
2017-11-09T15:06:21.032Z,6.70
2017-11-09T15:08:48.557Z,6.50
2017-11-09T15:11:16.063Z,6.60
2017-11-09T15:13:44.356Z,6.40
2017-11-09T15:16:12.627Z,6.40
2017-11-09T15:18:46.724Z,6.30
2017-11-09T15:21:15.007Z,6.00
2017-11-09T15:23:43.297Z,6.00
2017-11-09T15:26:11.571Z,5.90
2017-11-09T15:28:39.857Z,5.90
2017-11-09T15:31:07.739Z,5.90
2017-11-09T15:33:35.297Z,5.90
2017-11-09T15:36:08.432Z,5.90
2017-11-09T15:38:35.983Z,5.90
2017-11-09T15:41:03.488Z,5.80
2017-11-09T15:43:31.000Z,5.90
2017-11-09T15:45:58.523Z,5.80
2017-11-09T15:48:26.033Z,5.80
2017-11-09T15:50:53.557Z,5.80
2017-11-09T15:53:21.065Z,5.80
2017-11-09T15:55:49.357Z,5.80
2017-11-09T15:58:16.870Z,5.80
2017-11-09T16:00:44.388Z,5.70
2017-11-09T16:03:11.900Z,5.80
2017-11-09T16:05:39.419Z,5.80
2017-11-09T16:08:06.924Z,5.80
2017-11-09T16:10:35.220Z,5.80
2017-11-09T16:13:03.560Z,5.70
2017-11-09T16:15:31.106Z,5.80
2017-11-09T16:17:58.612Z,6.00
2017-11-09T16:20:26.145Z,6.00
2017-11-09T16:22:53.657Z,5.90
2017-11-09T16:25:21.184Z,5.80
2017-11-09T16:27:49.462Z,5.60
2017-11-09T16:30:16.985Z,5.60
2017-11-09T16:32:44.492Z,5.50
2017-11-09T16:35:12.037Z,5.40
2017-11-09T16:37:40.309Z,5.40
2017-11-09T16:40:07.815Z,5.40
2017-11-09T16:42:37.297Z,5.50
2017-11-09T16:45:04.800Z,5.40
2017-11-09T16:47:32.321Z,5.40
2017-11-09T16:49:59.833Z,5.40
2017-11-09T16:52:28.122Z,5.40
2017-11-09T16:54:56.401Z,5.30
2017-11-09T16:57:23.929Z,5.30
2017-11-09T16:59:51.437Z,5.30
2017-11-09T17:02:18.960Z,5.30
2017-11-09T17:04:47.239Z,5.30
2017-11-09T17:07:16.490Z,5.30
2017-11-09T17:09:43.996Z,5.30
2017-11-09T17:12:12.289Z,5.30
2017-11-09T17:14:39.800Z,5.30
2017-11-09T17:17:07.316Z,5.30
2017-11-09T17:19:34.838Z,5.30
2017-11-09T17:22:03.129Z,5.30
2017-11-09T17:24:31.434Z,5.40
2017-11-09T17:26:58.956Z,5.40
2017-11-09T17:29:27.228Z,5.50
2017-11-09T17:31:55.517Z,5.40
2017-11-09T17:34:23.792Z,5.40
2017-11-09T17:36:51.324Z,5.40
2017-11-09T17:39:18.841Z,5.40
2017-11-09T17:41:46.343Z,5.40
2017-11-09T17:44:13.866Z,5.40
2017-11-09T17:46:41.372Z,5.40
2017-11-09T17:49:09.668Z,5.30
2017-11-09T17:51:37.957Z,5.30
2017-11-09T17:54:05.489Z,5.40
2017-11-09T17:56:33.760Z,5.20
2017-11-09T17:59:02.052Z,5.20
2017-11-09T18:01:29.556Z,5.20
2017-11-09T18:03:57.076Z,5.20
2017-11-09T18:06:24.584Z,5.20
2017-11-09T18:08:52.119Z,5.30
2017-11-09T18:11:19.625Z,5.20
2017-11-09T18:13:47.920Z,5.20
2017-11-09T18:16:15.424Z,5.10
2017-11-09T18:18:42.944Z,5.10
2017-11-09T18:21:10.459Z,5.10
2017-11-09T18:23:37.988Z,5.00
2017-11-09T18:26:05.496Z,5.10
2017-11-09T18:28:33.775Z,5.10
2017-11-09T18:31:02.045Z,5.10
2017-11-09T18:33:30.372Z,5.10
2017-11-09T18:35:57.880Z,5.10
2017-11-09T18:38:26.175Z,5.00
2017-11-09T18:40:53.676Z,5.00
2017-11-09T18:43:21.206Z,5.00
2017-11-09T18:45:48.726Z,5.00
2017-11-09T18:48:17.004Z,5.00
2017-11-09T18:50:45.288Z,5.00
2017-11-09T18:53:13.560Z,5.00
2017-11-09T18:55:41.839Z,5.00
2017-11-09T18:58:10.108Z,5.00
2017-11-09T19:00:38.409Z,5.00
2017-11-09T19:03:05.920Z,5.00
2017-11-09T19:05:33.436Z,5.10
2017-11-09T19:08:00.940Z,5.00
2017-11-09T19:10:28.461Z,5.00
2017-11-09T19:12:55.968Z,5.00
2017-11-09T19:15:23.487Z,5.00
2017-11-09T19:17:50.994Z,5.00
2017-11-09T19:20:19.280Z,4.90
2017-11-09T19:22:47.546Z,4.90
2017-11-09T19:25:15.844Z,4.90
2017-11-09T19:27:43.350Z,4.90
2017-11-09T19:30:10.872Z,5.00
2017-11-09T19:32:38.379Z,5.00
2017-11-09T19:35:05.895Z,5.00
2017-11-09T19:37:33.396Z,5.00
2017-11-09T19:40:00.917Z,5.00
2017-11-09T19:42:28.421Z,5.20
2017-11-09T19:44:55.939Z,5.20
2017-11-09T19:47:23.445Z,5.20
2017-11-09T19:49:51.732Z,5.20
2017-11-09T19:52:20.003Z,5.10
2017-11-09T19:54:48.291Z,5.10
2017-11-09T19:57:15.796Z,5.10
2017-11-09T19:59:43.316Z,5.10
2017-11-09T20:02:10.830Z,5.00
2017-11-09T20:04:38.384Z,5.00
2017-11-09T20:07:05.888Z,5.00
2017-11-09T20:09:33.396Z,5.00
2017-11-09T20:12:00.934Z,5.00
2017-11-09T20:14:28.440Z,5.00
2017-11-09T20:16:56.724Z,5.00
2017-11-09T20:19:24.991Z,5.00
2017-11-09T20:21:53.281Z,5.00
2017-11-09T20:24:20.784Z,5.00
2017-11-09T20:26:48.304Z,5.00
2017-11-09T20:29:15.818Z,5.00
2017-11-09T20:31:43.353Z,5.00
2017-11-09T20:34:11.625Z,4.90
2017-11-09T20:36:39.150Z,4.90
2017-11-09T20:39:06.665Z,4.90
2017-11-09T20:41:34.204Z,4.90
2017-11-09T20:44:01.720Z,4.90
2017-11-09T20:46:29.994Z,5.00
2017-11-09T20:48:58.277Z,5.10
2017-11-09T20:51:25.780Z,5.00
2017-11-09T20:53:53.303Z,5.10
2017-11-09T20:56:20.804Z,5.00
2017-11-09T20:58:48.337Z,5.00
2017-11-09T21:01:15.841Z,5.00
2017-11-09T21:03:43.365Z,5.00
2017-11-09T21:06:11.636Z,4.90
2017-11-09T21:08:39.156Z,4.90
2017-11-09T21:11:07.425Z,4.90
2017-11-09T21:13:35.723Z,4.90
2017-11-09T21:16:03.232Z,4.90
2017-11-09T21:18:30.756Z,4.90
2017-11-09T21:20:58.260Z,5.00
2017-11-09T21:23:25.800Z,5.00
2017-11-09T21:25:53.324Z,5.00
2017-11-09T21:28:20.845Z,4.90
2017-11-09T21:30:49.118Z,4.90
2017-11-09T21:33:17.408Z,4.90
2017-11-09T21:35:45.689Z,5.00
2017-11-09T21:38:13.212Z,5.00
2017-11-09T21:40:40.721Z,5.00
2017-11-09T21:43:08.240Z,5.00
2017-11-09T21:45:35.740Z,5.00
2017-11-09T21:48:03.283Z,5.00
2017-11-09T21:50:30.787Z,5.00
2017-11-09T21:52:58.285Z,5.00
2017-11-09T21:55:26.571Z,5.10
2017-11-09T21:57:54.086Z,5.00
2017-11-09T22:00:21.610Z,5.00
2017-11-09T22:02:49.116Z,5.00
2017-11-09T22:05:16.633Z,5.00
2017-11-09T22:07:44.141Z,5.00
2017-11-09T22:10:12.439Z,5.00
2017-11-09T22:12:39.947Z,5.00
2017-11-09T22:15:07.476Z,5.10
2017-11-09T22:17:34.986Z,5.10
2017-11-09T22:20:02.508Z,5.10
2017-11-09T22:22:30.013Z,5.10
2017-11-09T22:24:58.303Z,5.00
2017-11-09T22:27:26.571Z,5.00
2017-11-09T22:29:54.852Z,5.10
2017-11-09T22:32:23.629Z,5.20
2017-11-09T22:34:51.919Z,5.20
2017-11-09T22:37:19.427Z,5.10
2017-11-09T22:39:46.968Z,5.10
2017-11-09T22:42:14.473Z,5.10
2017-11-09T22:44:43.540Z,5.10
2017-11-09T22:47:11.057Z,5.10
2017-11-09T22:49:38.580Z,5.10
2017-11-09T22:52:06.101Z,5.10
2017-11-09T22:54:33.613Z,5.00
2017-11-09T22:57:01.901Z,5.00
2017-11-09T22:59:29.411Z,5.00
2017-11-09T23:01:57.700Z,5.00
2017-11-09T23:04:25.209Z,4.90
2017-11-09T23:06:52.757Z,5.00
2017-11-09T23:09:20.257Z,5.10
2017-11-09T23:11:47.756Z,5.10
2017-11-09T23:14:16.049Z,5.00
2017-11-09T23:16:43.548Z,5.00
2017-11-09T23:19:11.072Z,5.00
2017-11-09T23:21:38.580Z,5.00
2017-11-09T23:24:06.099Z,5.10
2017-11-09T23:26:33.604Z,5.10
2017-11-09T23:29:01.128Z,5.10
2017-11-09T23:31:28.636Z,5.00
2017-11-09T23:33:56.929Z,5.00
2017-11-09T23:36:24.432Z,5.00
2017-11-09T23:38:52.715Z,5.00
2017-11-09T23:41:20.220Z,5.00
2017-11-09T23:43:47.741Z,5.00
2017-11-09T23:46:15.243Z,5.10
2017-11-09T23:48:42.756Z,5.10
2017-11-09T23:51:10.255Z,5.10
2017-11-09T23:53:37.768Z,5.10
2017-11-09T23:56:05.272Z,5.00
2017-11-09T23:58:32.793Z,5.00
